Skip Navigation LinksHome page > Weather > Current weather Skip Navigation Links

Current Weather

Eureka, Nunavut

For information only: do not use for flight planning or navigation.
Latest weather
Observation time Friday, April 18, 2014 10:00 PM CDT
Local time Friday, April 18, 2014 11:54 PM CDT
Flight conditions Visual Meteorological Conditions
Winds
Wind direction East-Southeast (110°)
Wind speed 2 mph
Visibility 15 mi.
Sky condition
Ceiling 20,000 ft. broken clouds
Cloud layer few clouds 10,000 ft.
Cloud layer broken clouds 20,000 ft.
Temperature -18°F
Dewpoint -29°F
Altimeter 29.71 in.Hg
Derived measurements
Relative humidity 56%
Wind chill -18°F
Density altitude -5353 ft.
Sea-level pressure 29.72 in.Hg
Remarks
Last observation of the day.
METAR CWEU 190300Z 11002KT 15SM FEW100 BKN200 M28/M34 A2971 RMK AS0CS0 LAST OBS/NEXT AT 19/0600Z SN COV/MEDIUM PACK SLP064

Settings

Location code

InnerDrive.Weather 4.0.4869.0 Release CLR 4.0.30319.18449
Copyright ©2013 Inner Drive Technology. All rights reserved. Portions Copyright ©1986-2013 David Braverman.

Find weather

Site navigation


Skip Navigation Links

Place info

Page info

PayPal - The safer, easier way to pay online!

Return home.

Copyright ©2014 Inner Drive Technology. Purveyors of fine, hand-crafted computer software. Page printed 2014-04-19T04:54:23 UTC.